Portada
METAR-TAF:

METAR-TAF

Aeropuertos :

Kake, Alaska, Estados Unidos

latitud: 56-57N, longitud: 133-54W, altitud: 52 m

Observación

El informe se hizo hace 11 minutos, a las 13:56 UTC
Viento 8 kt del norte-noreste
Temperatura -1°C
Humedad 69%
Presión 1003 hPa
Visibilidad: 16.1 km
Cielo cubierto a una altura de 9000 ft

METAR: PAFE 181356Z AUTO 03008KT 10SM OVC090 M01/M06 A2962 RMK AO2 SLP041 T10061061 FZRANO

Hora: 05:07 (14:07 UTC)


TAF: falta

Observaciones y pronósticos meteorológicos de más de 4000 aeropuertos (mensajes METAR y TAF).

Los puntos amarillos y rojos representan las estaciones disponibles.

Ponga el ratón en el punto deseado para ver el nombre de la estación.

Haga clic para ver las observaciones y los pronósticos meteorológicos.

Para cambiar el mapa : haga clic en los botones verdes con una cruz de color negro para hacer un zoom, en el botón verde con un guión para alejar o en las flechas verdes para mapas adyacentes.


METAR-TAF: